createdAt,value
2018-04-27T00:01:49.022Z,98139.44
2018-04-27T00:04:16.629Z,98134.55
2018-04-27T00:06:44.203Z,98135.34
2018-04-27T00:09:11.812Z,98131.17
2018-04-27T00:11:39.474Z,98124.81
2018-04-27T00:14:07.099Z,98131.71
2018-04-27T00:16:34.691Z,98136.86
2018-04-27T00:19:02.278Z,98138.92
2018-04-27T00:21:29.882Z,98129.39
2018-04-27T00:23:57.483Z,98129.22
2018-04-27T00:26:25.107Z,98129.77
2018-04-27T00:28:52.733Z,98120.53
2018-04-27T00:31:20.592Z,98117.55
2018-04-27T00:33:48.187Z,98110.14
2018-04-27T00:36:15.770Z,98122.56
2018-04-27T00:38:43.373Z,98119.41
2018-04-27T00:41:10.972Z,98112.13
2018-04-27T00:43:38.595Z,98115.21
2018-04-27T00:46:06.222Z,98113.47
2018-04-27T00:48:34.027Z,98120.16
2018-04-27T00:51:01.611Z,98120.98
2018-04-27T00:53:29.201Z,98117.61
2018-04-27T00:55:56.811Z,98109.20
2018-04-27T00:58:24.407Z,98114.03
2018-04-27T01:00:52.098Z,98113.09
2018-04-27T01:03:19.779Z,98112.49
2018-04-27T01:05:47.411Z,98113.03
2018-04-27T01:08:14.999Z,98108.45
2018-04-27T01:10:42.589Z,98114.34
2018-04-27T01:13:10.213Z,98107.11
2018-04-27T01:15:37.795Z,98110.89
2018-04-27T01:18:05.406Z,98103.42
2018-04-27T01:20:32.996Z,98104.05
2018-04-27T01:23:00.696Z,98101.25
2018-04-27T01:25:28.284Z,98105.28
2018-04-27T01:27:55.875Z,98106.09
2018-04-27T01:30:23.478Z,98097.82
2018-04-27T01:32:51.063Z,98100.88
2018-04-27T01:35:18.678Z,98096.81
2018-04-27T01:37:46.282Z,98096.16
2018-04-27T01:42:47.935Z,98098.91
2018-04-27T01:45:15.899Z,98102.05
2018-04-27T01:47:43.504Z,98095.25
2018-04-27T01:50:11.091Z,98095.79
2018-04-27T01:52:38.707Z,98093.41
2018-04-27T01:55:06.300Z,98093.15
2018-04-27T01:57:33.916Z,98090.41
2018-04-27T02:00:01.507Z,98091.73
2018-04-27T02:02:29.441Z,98092.70
2018-04-27T02:04:57.027Z,98089.90
2018-04-27T02:07:24.621Z,98090.19
2018-04-27T02:09:52.253Z,98090.82
2018-04-27T02:12:19.836Z,98086.25
2018-04-27T02:14:47.438Z,98082.50
2018-04-27T02:17:15.078Z,98081.98
2018-04-27T02:19:42.869Z,98081.81
2018-04-27T02:22:10.457Z,98079.28
2018-04-27T02:24:38.052Z,98079.93
2018-04-27T02:27:05.661Z,98083.98
2018-04-27T02:29:33.241Z,98083.35
2018-04-27T02:32:00.855Z,98082.69
2018-04-27T02:34:28.446Z,98087.16
2018-04-27T02:36:56.201Z,98086.53
2018-04-27T02:39:23.793Z,98083.70
2018-04-27T02:41:51.477Z,98081.56
2018-04-27T02:44:19.095Z,98085.19
2018-04-27T02:46:46.686Z,98082.88
2018-04-27T02:49:14.299Z,98087.03
2018-04-27T02:51:41.899Z,98075.68
2018-04-27T02:54:09.857Z,98071.97
2018-04-27T02:56:37.442Z,98071.81
2018-04-27T02:59:05.019Z,98071.94
2018-04-27T03:01:32.638Z,98068.61
2018-04-27T03:04:00.240Z,98067.41
2018-04-27T03:06:27.856Z,98063.92
2018-04-27T03:08:55.443Z,98060.59
2018-04-27T03:11:23.070Z,98056.70
2018-04-27T03:13:50.662Z,98048.09
2018-04-27T03:16:18.253Z,98048.51
2018-04-27T03:18:45.858Z,98043.41
2018-04-27T03:21:13.489Z,98045.53
2018-04-27T03:23:41.126Z,98045.42
2018-04-27T03:26:08.723Z,98036.34
2018-04-27T03:28:36.610Z,98036.61
2018-04-27T03:31:04.194Z,98027.48
2018-04-27T03:33:31.788Z,98032.36
2018-04-27T03:35:59.406Z,98021.88
2018-04-27T03:38:26.987Z,98019.34
2018-04-27T03:40:54.722Z,98021.22
2018-04-27T03:43:22.314Z,98011.74
2018-04-27T03:45:49.898Z,98012.16
2018-04-27T03:48:17.499Z,98018.32
2018-04-27T03:50:45.103Z,98006.13
2018-04-27T03:53:12.730Z,97999.69
2018-04-27T03:55:40.395Z,98003.70
2018-04-27T03:58:08.000Z,97996.03
2018-04-27T04:00:47.281Z,97996.45
2018-04-27T04:03:26.646Z,97986.81
2018-04-27T04:05:54.263Z,97983.25
2018-04-27T04:08:21.854Z,97981.23
2018-04-27T04:10:49.505Z,97979.02
2018-04-27T04:13:17.118Z,97982.63
2018-04-27T04:15:44.895Z,97982.00
2018-04-27T04:18:12.487Z,97976.22
2018-04-27T04:20:40.077Z,97969.62
2018-04-27T04:23:07.687Z,97970.83
2018-04-27T04:25:35.269Z,97975.14
2018-04-27T04:28:02.896Z,97974.71
2018-04-27T04:30:30.501Z,97974.59
2018-04-27T04:32:58.297Z,97977.04
2018-04-27T04:35:25.885Z,97974.98
2018-04-27T04:37:53.581Z,97978.20
2018-04-27T04:40:21.195Z,97978.97
2018-04-27T04:42:48.790Z,97978.84
2018-04-27T04:45:16.398Z,97978.94
2018-04-27T04:47:43.982Z,97974.24
2018-04-27T04:50:11.894Z,97971.41
2018-04-27T04:52:39.499Z,97971.95
2018-04-27T04:55:07.114Z,97972.16
2018-04-27T04:57:34.721Z,97974.95
2018-04-27T05:00:02.339Z,97974.52
2018-04-27T05:02:29.956Z,97975.25
2018-04-27T05:04:57.546Z,97968.52
2018-04-27T05:07:25.126Z,97966.69
2018-04-27T05:09:52.757Z,97975.70
2018-04-27T05:12:20.347Z,97981.99
2018-04-27T05:14:48.205Z,97982.66
2018-04-27T05:17:15.800Z,97981.15
2018-04-27T05:19:43.391Z,97983.55
2018-04-27T05:22:11.003Z,97970.62
2018-04-27T05:24:38.616Z,97966.23
2018-04-27T05:27:06.225Z,97969.12
2018-04-27T05:29:33.855Z,97965.70
2018-04-27T05:32:02.058Z,97966.08
2018-04-27T05:34:29.650Z,97966.81
2018-04-27T05:36:57.250Z,97965.08
2018-04-27T05:39:24.870Z,97961.64
2018-04-27T05:41:52.468Z,97968.59
2018-04-27T05:44:20.091Z,97958.83
2018-04-27T05:46:47.716Z,97961.95
2018-04-27T05:49:15.382Z,97960.94
2018-04-27T05:51:42.978Z,97951.17
2018-04-27T05:54:10.576Z,97955.28
2018-04-27T05:56:38.225Z,97952.23
2018-04-27T05:59:05.835Z,97948.53
2018-04-27T06:01:33.449Z,97947.36
2018-04-27T06:04:12.847Z,97934.70
2018-04-27T06:06:40.482Z,97935.36
2018-04-27T06:09:08.092Z,97928.84
2018-04-27T06:11:35.743Z,97930.69
2018-04-27T06:14:03.379Z,97925.23
2018-04-27T06:16:31.012Z,97927.66
2018-04-27T06:18:59.046Z,97925.19
2018-04-27T06:21:26.648Z,97925.67
2018-04-27T06:23:54.258Z,97918.39
2018-04-27T06:26:21.858Z,97913.95
2018-04-27T06:28:49.475Z,97905.02
2018-04-27T06:31:17.107Z,97910.48
2018-04-27T06:33:44.714Z,97912.30
2018-04-27T06:36:12.323Z,97913.30
2018-04-27T06:38:39.931Z,97911.59
2018-04-27T06:41:07.772Z,97916.55
2018-04-27T06:43:35.370Z,97917.87
2018-04-27T06:46:02.982Z,97910.10
2018-04-27T06:48:30.621Z,97912.38
2018-04-27T06:50:58.235Z,97905.50
2018-04-27T06:53:25.881Z,97902.25
2018-04-27T06:55:53.721Z,97899.02
2018-04-27T06:58:21.531Z,97901.86
2018-04-27T07:00:49.132Z,97895.94
2018-04-27T07:03:16.717Z,97890.94
2018-04-27T07:05:44.360Z,97878.87
2018-04-27T07:08:11.969Z,97873.91
2018-04-27T07:10:39.586Z,97872.70
2018-04-27T07:13:07.200Z,97875.48
2018-04-27T07:15:35.004Z,97876.16
2018-04-27T07:18:02.647Z,97869.02
2018-04-27T07:20:30.243Z,97862.84
2018-04-27T07:22:57.929Z,97863.03
2018-04-27T07:25:25.522Z,97858.47
2018-04-27T07:27:53.150Z,97857.27
2018-04-27T07:30:20.745Z,97858.70
2018-04-27T07:32:48.575Z,97855.44
2018-04-27T07:35:16.163Z,97859.16
2018-04-27T07:37:43.791Z,97852.42
2018-04-27T07:40:11.402Z,97844.19
2018-04-27T07:42:39.017Z,97839.98
2018-04-27T07:45:06.670Z,97841.58
2018-04-27T07:47:34.303Z,97836.16
2018-04-27T07:50:02.102Z,97835.24
2018-04-27T07:52:29.692Z,97831.89
2018-04-27T07:54:57.336Z,97823.17
2018-04-27T07:57:24.966Z,97828.61
2018-04-27T07:59:52.563Z,97825.53
2018-04-27T08:02:20.199Z,97809.70
2018-04-27T08:04:47.821Z,97805.80
2018-04-27T08:07:15.910Z,97803.95
2018-04-27T08:09:44.922Z,97810.72
2018-04-27T08:12:15.941Z,97798.73
2018-04-27T08:14:43.633Z,97795.62
2018-04-27T08:17:11.231Z,97793.23
2018-04-27T08:19:38.841Z,97802.53
2018-04-27T08:22:06.428Z,97800.03
2018-04-27T08:24:36.027Z,97795.29
2018-04-27T08:27:03.552Z,97789.40
2018-04-27T08:29:31.171Z,97786.17
2018-04-27T08:31:58.847Z,97789.81
2018-04-27T08:34:26.429Z,97781.81
2018-04-27T08:36:54.051Z,97777.89
2018-04-27T08:39:21.966Z,97772.47
2018-04-27T08:41:49.812Z,97768.61
2018-04-27T08:44:17.417Z,97761.62
2018-04-27T08:46:45.116Z,97758.65
2018-04-27T08:49:14.256Z,97753.38
2018-04-27T08:51:42.108Z,97750.64
2018-04-27T08:54:09.733Z,97748.09
2018-04-27T08:56:37.321Z,97740.89
2018-04-27T08:59:04.974Z,97735.81
2018-04-27T09:01:32.578Z,97722.11
2018-04-27T09:04:00.200Z,97735.81
2018-04-27T09:06:27.912Z,97730.47
2018-04-27T09:08:56.447Z,97716.27
2018-04-27T09:11:24.163Z,97720.69
2018-04-27T09:13:51.767Z,97718.27
2018-04-27T09:16:19.933Z,97717.16
2018-04-27T09:18:47.538Z,97708.25
2018-04-27T09:21:15.158Z,97705.88
2018-04-27T09:23:42.923Z,97691.37
2018-04-27T09:26:10.872Z,97687.41
2018-04-27T09:28:38.490Z,97688.20
2018-04-27T09:31:06.219Z,97682.81
2018-04-27T09:33:34.228Z,97677.27
2018-04-27T09:36:01.882Z,97675.42
2018-04-27T09:38:29.485Z,97671.03
2018-04-27T09:40:57.485Z,97668.00
2018-04-27T09:43:25.027Z,97671.95
2018-04-27T09:45:52.705Z,97675.94
2018-04-27T09:48:20.297Z,97666.01
2018-04-27T09:50:47.959Z,97655.45
2018-04-27T09:53:15.555Z,97657.77
2018-04-27T09:55:43.138Z,97650.77
2018-04-27T09:58:10.749Z,97645.41
2018-04-27T10:00:38.352Z,97641.02
2018-04-27T10:03:05.970Z,97642.97
2018-04-27T10:05:33.558Z,97638.55
2018-04-27T10:08:01.456Z,97633.34
2018-04-27T10:10:29.043Z,97634.44
2018-04-27T10:12:56.643Z,97624.83
2018-04-27T10:15:24.254Z,97613.53
2018-04-27T10:17:51.842Z,97621.47
2018-04-27T10:20:19.450Z,97612.81
2018-04-27T10:22:49.181Z,97617.34
2018-04-27T10:25:17.665Z,97608.70
2018-04-27T10:27:45.266Z,97598.64
2018-04-27T10:30:12.856Z,97597.31
2018-04-27T10:32:40.479Z,97592.87
2018-04-27T10:35:08.061Z,97586.77
2018-04-27T10:37:35.673Z,97579.09
2018-04-27T10:40:03.772Z,97578.59
2018-04-27T10:42:31.709Z,97568.25
2018-04-27T10:44:59.316Z,97563.45
2018-04-27T10:47:26.934Z,97560.75
2018-04-27T10:49:54.582Z,97564.97
2018-04-27T10:52:22.183Z,97550.75
2018-04-27T10:54:49.811Z,97538.09
2018-04-27T10:57:17.543Z,97537.26
2018-04-27T10:59:45.450Z,97533.56
2018-04-27T11:02:13.043Z,97531.14
2018-04-27T11:04:40.646Z,97531.19
2018-04-27T11:07:08.265Z,97530.86
2018-04-27T11:09:35.846Z,97516.55
2018-04-27T11:12:03.473Z,97506.14
2018-04-27T11:14:31.062Z,97504.67
2018-04-27T11:16:59.000Z,97498.76
2018-04-27T11:19:26.502Z,97486.47
2018-04-27T11:21:54.143Z,97493.01
2018-04-27T11:24:21.754Z,97486.73
2018-04-27T11:26:49.345Z,97482.34
2018-04-27T11:29:17.084Z,97481.22
2018-04-27T11:31:44.669Z,97490.47
2018-04-27T11:34:12.733Z,97481.72
2018-04-27T11:36:40.341Z,97474.56
2018-04-27T11:39:07.931Z,97477.53
2018-04-27T11:41:35.538Z,97469.40
2018-04-27T11:44:03.174Z,97463.45
2018-04-27T11:46:30.781Z,97455.23
2018-04-27T11:48:58.385Z,97455.02
2018-04-27T11:51:26.109Z,97452.45
2018-04-27T11:53:53.701Z,97446.90
2018-04-27T11:56:21.292Z,97445.04
2018-04-27T11:58:48.922Z,97438.32
2018-04-27T12:01:16.614Z,97433.22
2018-04-27T12:03:44.316Z,97431.87
2018-04-27T12:06:11.862Z,97432.02
2018-04-27T12:08:39.505Z,97421.70
2018-04-27T12:11:07.101Z,97420.23
2018-04-27T12:13:37.572Z,97419.38
2018-04-27T12:16:05.430Z,97417.37
2018-04-27T12:18:42.460Z,97420.27
2018-04-27T12:21:10.946Z,97429.58
2018-04-27T12:23:38.960Z,97427.06
2018-04-27T12:26:07.075Z,97415.62
2018-04-27T12:28:34.950Z,97414.82
2018-04-27T12:31:02.602Z,97400.41
2018-04-27T12:33:30.211Z,97399.41
2018-04-27T12:35:57.831Z,97398.92
2018-04-27T12:38:25.679Z,97390.84
2018-04-27T12:40:53.274Z,97388.31
2018-04-27T12:43:21.326Z,97389.83
2018-04-27T12:45:49.641Z,97388.84
2018-04-27T12:48:17.693Z,97370.70
2018-04-27T12:50:46.772Z,97366.46
2018-04-27T12:53:14.844Z,97359.83
2018-04-27T12:55:42.761Z,97348.78
2018-04-27T12:58:10.968Z,97352.31
2018-04-27T13:00:38.961Z,97342.42
2018-04-27T13:03:06.832Z,97337.61
2018-04-27T13:05:34.694Z,97335.09
2018-04-27T13:08:02.784Z,97337.75
2018-04-27T13:10:30.741Z,97329.22
2018-04-27T13:12:58.613Z,97334.77
2018-04-27T13:15:26.783Z,97316.61
2018-04-27T13:17:55.200Z,97315.98
2018-04-27T13:20:23.131Z,97313.98
2018-04-27T13:22:50.994Z,97314.64
2018-04-27T13:25:18.831Z,97313.37
2018-04-27T13:27:46.875Z,97315.28
2018-04-27T13:30:15.269Z,97298.57
2018-04-27T13:32:43.183Z,97292.87
2018-04-27T13:35:11.148Z,97286.68
2018-04-27T13:37:39.133Z,97284.20
2018-04-27T13:40:07.805Z,97285.43
2018-04-27T13:42:35.682Z,97281.80
2018-04-27T13:45:04.055Z,97283.52
2018-04-27T13:47:31.885Z,97279.67
2018-04-27T13:49:59.736Z,97285.10
2018-04-27T13:52:27.557Z,97280.65
2018-04-27T13:54:55.529Z,97282.25
2018-04-27T13:57:23.560Z,97283.94
2018-04-27T13:59:51.584Z,97281.50
2018-04-27T14:02:19.550Z,97292.66
2018-04-27T14:04:47.419Z,97280.75
2018-04-27T14:07:15.381Z,97281.36
2018-04-27T14:09:45.496Z,97275.72
2018-04-27T14:12:13.370Z,97270.09
2018-04-27T14:14:41.072Z,97262.72
2018-04-27T14:17:08.690Z,97259.06
2018-04-27T14:19:36.617Z,97253.09
2018-04-27T14:22:04.283Z,97252.76
2018-04-27T14:24:32.026Z,97262.14
2018-04-27T14:26:59.667Z,97263.09
2018-04-27T14:29:27.255Z,97251.70
2018-04-27T14:31:55.168Z,97251.48
2018-04-27T14:34:22.778Z,97249.14
2018-04-27T14:36:50.390Z,97245.14
2018-04-27T14:39:18.000Z,97239.58
2018-04-27T14:41:45.691Z,97235.27
2018-04-27T14:44:13.837Z,97236.61
2018-04-27T14:46:41.648Z,97230.83
2018-04-27T14:49:09.298Z,97233.80
2018-04-27T14:51:37.166Z,97232.39
2018-04-27T14:54:04.946Z,97228.91
2018-04-27T14:56:32.542Z,97221.88
2018-04-27T14:59:00.616Z,97221.10
2018-04-27T15:01:28.223Z,97222.21
2018-04-27T15:03:55.812Z,97217.48
2018-04-27T15:06:23.635Z,97215.58
2018-04-27T15:08:51.454Z,97214.80
2018-04-27T15:11:19.427Z,97205.03
2018-04-27T15:13:47.409Z,97203.69
2018-04-27T15:16:15.251Z,97205.25
2018-04-27T15:18:43.229Z,97205.50
2018-04-27T15:21:10.838Z,97206.65
2018-04-27T15:23:38.456Z,97213.53
2018-04-27T15:26:06.262Z,97216.84
2018-04-27T15:28:33.918Z,97223.28
2018-04-27T15:31:01.508Z,97216.08
2018-04-27T15:33:29.097Z,97213.94
2018-04-27T15:35:56.726Z,97220.06
2018-04-27T15:38:24.513Z,97217.88
2018-04-27T15:40:52.491Z,97216.12
2018-04-27T15:43:20.416Z,97214.55
2018-04-27T15:45:48.213Z,97222.00
2018-04-27T15:48:15.822Z,97225.92
2018-04-27T15:50:43.426Z,97220.05
2018-04-27T15:53:11.046Z,97224.55
2018-04-27T15:55:38.638Z,97222.57
2018-04-27T15:58:06.247Z,97223.82
2018-04-27T16:00:33.844Z,97217.92
2018-04-27T16:03:01.633Z,97210.47
2018-04-27T16:05:29.229Z,97206.75
2018-04-27T16:07:56.871Z,97200.42
2018-04-27T16:10:24.530Z,97203.51
2018-04-27T16:12:52.139Z,97203.85
2018-04-27T16:15:19.772Z,97212.28
2018-04-27T16:17:47.416Z,97205.23
2018-04-27T16:20:15.057Z,97205.78
2018-04-27T16:22:42.650Z,97204.58
2018-04-27T16:25:10.269Z,97204.73
2018-04-27T16:27:37.860Z,97205.45
2018-04-27T16:30:05.728Z,97198.17
2018-04-27T16:32:33.318Z,97199.90
2018-04-27T16:35:00.926Z,97192.30
2018-04-27T16:37:28.539Z,97190.56
2018-04-27T16:39:56.187Z,97187.59
2018-04-27T16:42:23.806Z,97179.09
2018-04-27T16:44:51.395Z,97178.91
2018-04-27T16:47:19.266Z,97171.03
2018-04-27T16:49:46.853Z,97165.91
2018-04-27T16:52:14.445Z,97176.07
2018-04-27T16:54:42.056Z,97170.98
2018-04-27T16:57:09.652Z,97171.38
2018-04-27T16:59:37.282Z,97172.39
2018-04-27T17:02:04.881Z,97175.05
2018-04-27T17:04:32.701Z,97170.11
2018-04-27T17:07:00.323Z,97162.66
2018-04-27T17:09:27.931Z,97168.36
2018-04-27T17:11:55.574Z,97168.44
2018-04-27T17:14:23.183Z,97169.66
2018-04-27T17:16:50.816Z,97174.28
2018-04-27T17:19:18.469Z,97168.78
2018-04-27T17:21:46.201Z,97163.93
2018-04-27T17:24:13.794Z,97164.22
2018-04-27T17:26:41.393Z,97159.12
2018-04-27T17:29:09.004Z,97158.84
2018-04-27T17:31:36.625Z,97161.35
2018-04-27T17:34:04.265Z,97169.28
2018-04-27T17:36:31.859Z,97174.41
2018-04-27T17:38:59.531Z,97161.20
2018-04-27T17:41:27.124Z,97170.70
2018-04-27T17:43:54.731Z,97171.22
2018-04-27T17:46:22.371Z,97173.45
2018-04-27T17:48:50.013Z,97167.73
2018-04-27T17:51:17.673Z,97164.86
2018-04-27T17:53:45.266Z,97162.25
2018-04-27T17:56:13.300Z,97178.22
2018-04-27T17:58:40.890Z,97182.45
2018-04-27T18:01:09.311Z,97185.62
2018-04-27T18:03:36.935Z,97189.26
2018-04-27T18:06:04.526Z,97181.18
2018-04-27T18:08:32.322Z,97188.18
2018-04-27T18:10:59.936Z,97186.76
2018-04-27T18:13:27.532Z,97177.16
2018-04-27T18:15:55.154Z,97175.41
2018-04-27T18:18:22.745Z,97176.28
2018-04-27T18:20:50.619Z,97176.33
2018-04-27T18:23:18.221Z,97183.05
2018-04-27T18:25:45.834Z,97180.19
2018-04-27T18:28:13.479Z,97183.98
2018-04-27T18:30:41.075Z,97183.02
2018-04-27T18:33:08.910Z,97177.06
2018-04-27T18:35:36.731Z,97184.77
2018-04-27T18:38:04.338Z,97174.43
2018-04-27T18:40:31.956Z,97173.34
2018-04-27T18:42:59.575Z,97173.94
2018-04-27T18:45:27.217Z,97173.84
2018-04-27T18:47:54.814Z,97177.95
2018-04-27T18:50:22.594Z,97170.91
2018-04-27T18:52:50.191Z,97181.09
2018-04-27T18:55:17.793Z,97182.70
2018-04-27T18:57:45.409Z,97181.38
2018-04-27T19:00:12.998Z,97181.59
2018-04-27T19:02:40.664Z,97191.30
2018-04-27T19:05:09.079Z,97195.31
2018-04-27T19:07:36.674Z,97186.61
2018-04-27T19:10:04.309Z,97189.50
2018-04-27T19:12:31.898Z,97190.13
2018-04-27T19:14:59.519Z,97198.93
2018-04-27T19:17:29.938Z,97206.56
2018-04-27T19:19:57.643Z,97198.97
2018-04-27T19:22:26.919Z,97199.39
2018-04-27T19:24:54.585Z,97200.52
2018-04-27T19:27:22.177Z,97198.81
2018-04-27T19:29:49.791Z,97201.03
2018-04-27T19:32:17.405Z,97202.52
2018-04-27T19:34:45.077Z,97207.66
2018-04-27T19:37:12.641Z,97205.63
2018-04-27T19:39:40.266Z,97202.97
2018-04-27T19:42:07.875Z,97209.23
2018-04-27T19:44:35.879Z,97210.52
2018-04-27T19:47:03.486Z,97213.30
2018-04-27T19:49:31.102Z,97212.23
2018-04-27T19:51:58.710Z,97221.56
2018-04-27T19:54:26.323Z,97214.02
2018-04-27T19:56:55.495Z,97215.44
2018-04-27T19:59:23.083Z,97222.25
2018-04-27T20:01:50.710Z,97220.06
2018-04-27T20:04:18.302Z,97215.73
2018-04-27T20:06:47.032Z,97218.68
2018-04-27T20:09:15.375Z,97219.21
2018-04-27T20:11:43.193Z,97221.84
2018-04-27T20:14:10.793Z,97219.15
2018-04-27T20:16:40.256Z,97217.15
2018-04-27T20:19:08.538Z,97220.14
2018-04-27T20:21:36.136Z,97222.80
2018-04-27T20:24:03.764Z,97216.42
2018-04-27T20:26:31.358Z,97223.46
2018-04-27T20:28:58.969Z,97229.66
2018-04-27T20:31:26.555Z,97227.95
2018-04-27T20:33:54.277Z,97224.03
2018-04-27T20:36:21.974Z,97235.34
2018-04-27T20:38:49.567Z,97234.23
2018-04-27T20:41:19.011Z,97228.41
2018-04-27T20:43:48.252Z,97234.95
2018-04-27T20:46:17.900Z,97230.30
2018-04-27T20:48:45.635Z,97227.43
2018-04-27T20:51:13.530Z,97228.05
2018-04-27T20:53:41.863Z,97226.40
2018-04-27T20:56:09.457Z,97234.22
2018-04-27T20:58:37.075Z,97232.97
2018-04-27T21:01:04.669Z,97239.74
2018-04-27T21:03:32.282Z,97245.66
2018-04-27T21:06:00.841Z,97245.94
2018-04-27T21:08:28.451Z,97239.42
2018-04-27T21:10:56.047Z,97239.14
2018-04-27T21:13:24.018Z,97238.17
2018-04-27T21:15:51.615Z,97236.52
2018-04-27T21:18:21.120Z,97242.89
2018-04-27T21:20:48.742Z,97245.25
2018-04-27T21:23:16.359Z,97245.28
2018-04-27T21:25:43.975Z,97240.38
2018-04-27T21:28:14.274Z,97245.71
2018-04-27T21:30:44.578Z,97249.26
2018-04-27T21:33:12.217Z,97243.64
2018-04-27T21:35:49.652Z,97255.31
2018-04-27T21:41:50.975Z,97253.97
2018-04-27T21:44:20.063Z,97261.98
2018-04-27T21:46:48.333Z,97261.16
2018-04-27T21:49:16.905Z,97267.95
2018-04-27T21:51:45.282Z,97269.73
2018-04-27T21:54:14.602Z,97271.08
2018-04-27T21:59:45.399Z,97277.58
2018-04-27T22:02:19.773Z,97288.18
2018-04-27T22:04:47.395Z,97284.17
2018-04-27T22:07:19.751Z,97290.40
2018-04-27T22:09:58.110Z,97288.31
2018-04-27T22:12:25.728Z,97293.25
2018-04-27T22:14:53.342Z,97291.06
2018-04-27T22:17:29.515Z,97300.69
2018-04-27T22:19:59.951Z,97297.31
2018-04-27T22:22:27.544Z,97301.30
2018-04-27T22:25:05.881Z,97300.52
2018-04-27T22:27:33.502Z,97309.85
2018-04-27T22:30:02.643Z,97304.45
2018-04-27T22:32:38.873Z,97311.80
2018-04-27T22:35:38.943Z,97318.20
2018-04-27T22:38:06.563Z,97325.16
2018-04-27T22:40:39.752Z,97323.90
2018-04-27T22:43:11.228Z,97327.33
2018-04-27T22:45:38.842Z,97335.14
2018-04-27T22:48:08.866Z,97336.23
2018-04-27T22:50:36.465Z,97330.93
2018-04-27T22:53:04.754Z,97342.61
2018-04-27T22:55:33.017Z,97345.28
2018-04-27T22:58:01.315Z,97349.34
2018-04-27T23:03:27.874Z,97360.02
2018-04-27T23:05:55.476Z,97359.45
2018-04-27T23:08:23.100Z,97369.74
2018-04-27T23:14:12.866Z,97365.02
2018-04-27T23:16:46.266Z,97368.83
2018-04-27T23:19:13.883Z,97373.64
2018-04-27T23:21:42.183Z,97369.80
2018-04-27T23:24:09.810Z,97372.73
2018-04-27T23:26:37.428Z,97374.83
2018-04-27T23:29:05.222Z,97377.47
2018-04-27T23:31:32.826Z,97378.34
2018-04-27T23:34:00.422Z,97385.17
2018-04-27T23:36:28.056Z,97385.91
2018-04-27T23:38:55.643Z,97380.83
2018-04-27T23:41:23.264Z,97381.05
2018-04-27T23:43:50.858Z,97387.52
2018-04-27T23:46:24.162Z,97385.42
2018-04-27T23:48:51.775Z,97386.73
2018-04-27T23:51:19.375Z,97387.73
2018-04-27T23:53:48.679Z,97388.83
2018-04-27T23:56:16.288Z,97384.41
2018-04-27T23:58:43.901Z,97379.72
